sensor_id;sensor_type;location;lat;lon;timestamp;P1;durP1;ratioP1;P2;durP2;ratioP2
26756;SDS011;23848;49.798;10.228;2023-01-20T00:01:26;15.88;;;10.02;;
26756;SDS011;23848;49.798;10.228;2023-01-20T00:03:57;15.25;;;10.68;;
26756;SDS011;23848;49.798;10.228;2023-01-20T00:06:25;17.48;;;11.30;;
26756;SDS011;23848;49.798;10.228;2023-01-20T00:08:55;14.25;;;10.27;;
26756;SDS011;23848;49.798;10.228;2023-01-20T00:11:24;15.68;;;9.95;;
26756;SDS011;23848;49.798;10.228;2023-01-20T00:13:52;17.23;;;9.60;;
26756;SDS011;23848;49.798;10.228;2023-01-20T00:16:28;15.13;;;10.15;;
26756;SDS011;23848;49.798;10.228;2023-01-20T00:19:01;12.32;;;9.10;;
26756;SDS011;23848;49.798;10.228;2023-01-20T00:21:30;15.98;;;10.60;;
26756;SDS011;23848;49.798;10.228;2023-01-20T00:24:00;15.73;;;10.15;;
26756;SDS011;23848;49.798;10.228;2023-01-20T00:26:28;17.13;;;10.93;;
26756;SDS011;23848;49.798;10.228;2023-01-20T00:28:56;17.42;;;10.27;;
26756;SDS011;23848;49.798;10.228;2023-01-20T00:31:25;14.55;;;9.57;;
26756;SDS011;23848;49.798;10.228;2023-01-20T00:33:54;15.05;;;9.82;;
26756;SDS011;23848;49.798;10.228;2023-01-20T00:36:25;16.98;;;11.10;;
26756;SDS011;23848;49.798;10.228;2023-01-20T00:38:53;15.95;;;10.02;;
26756;SDS011;23848;49.798;10.228;2023-01-20T00:41:22;17.75;;;9.70;;
26756;SDS011;23848;49.798;10.228;2023-01-20T00:43:50;14.85;;;9.63;;
26756;SDS011;23848;49.798;10.228;2023-01-20T00:46:18;15.82;;;10.73;;
26756;SDS011;23848;49.798;10.228;2023-01-20T00:48:48;17.05;;;9.90;;
26756;SDS011;23848;49.798;10.228;2023-01-20T00:51:16;17.23;;;10.57;;
26756;SDS011;23848;49.798;10.228;2023-01-20T00:53:46;17.52;;;10.88;;
26756;SDS011;23848;49.798;10.228;2023-01-20T00:56:15;16.55;;;11.27;;
26756;SDS011;23848;49.798;10.228;2023-01-20T00:58:43;17.67;;;10.98;;
26756;SDS011;23848;49.798;10.228;2023-01-20T01:01:11;17.73;;;9.93;;
26756;SDS011;23848;49.798;10.228;2023-01-20T01:03:40;15.02;;;10.52;;
26756;SDS011;23848;49.798;10.228;2023-01-20T01:06:09;19.50;;;10.75;;
26756;SDS011;23848;49.798;10.228;2023-01-20T01:08:38;17.55;;;11.98;;
26756;SDS011;23848;49.798;10.228;2023-01-20T01:11:08;16.48;;;10.43;;
26756;SDS011;23848;49.798;10.228;2023-01-20T01:13:37;13.85;;;9.73;;
26756;SDS011;23848;49.798;10.228;2023-01-20T01:16:08;19.67;;;12.65;;
26756;SDS011;23848;49.798;10.228;2023-01-20T01:18:37;17.25;;;11.65;;
26756;SDS011;23848;49.798;10.228;2023-01-20T01:21:06;15.43;;;11.75;;
26756;SDS011;23848;49.798;10.228;2023-01-20T01:23:35;17.35;;;11.57;;
26756;SDS011;23848;49.798;10.228;2023-01-20T01:26:04;18.23;;;10.93;;
26756;SDS011;23848;49.798;10.228;2023-01-20T01:28:33;18.38;;;12.05;;
26756;SDS011;23848;49.798;10.228;2023-01-20T01:31:02;17.98;;;10.77;;
26756;SDS011;23848;49.798;10.228;2023-01-20T01:33:31;16.98;;;11.85;;
26756;SDS011;23848;49.798;10.228;2023-01-20T01:36:00;17.23;;;11.30;;
26756;SDS011;23848;49.798;10.228;2023-01-20T01:38:29;17.55;;;11.77;;
26756;SDS011;23848;49.798;10.228;2023-01-20T01:40:57;17.30;;;11.93;;
26756;SDS011;23848;49.798;10.228;2023-01-20T01:43:26;17.88;;;11.77;;
26756;SDS011;23848;49.798;10.228;2023-01-20T01:45:57;17.25;;;10.80;;
26756;SDS011;23848;49.798;10.228;2023-01-20T01:48:26;15.93;;;9.77;;
26756;SDS011;23848;49.798;10.228;2023-01-20T01:50:56;17.15;;;11.32;;
26756;SDS011;23848;49.798;10.228;2023-01-20T01:53:25;16.42;;;10.82;;
26756;SDS011;23848;49.798;10.228;2023-01-20T01:55:55;17.58;;;10.52;;
26756;SDS011;23848;49.798;10.228;2023-01-20T01:58:26;15.43;;;10.75;;
26756;SDS011;23848;49.798;10.228;2023-01-20T02:00:56;18.17;;;11.15;;
26756;SDS011;23848;49.798;10.228;2023-01-20T02:03:25;19.20;;;12.38;;
26756;SDS011;23848;49.798;10.228;2023-01-20T02:05:55;16.40;;;11.20;;
26756;SDS011;23848;49.798;10.228;2023-01-20T02:08:24;17.23;;;11.07;;
26756;SDS011;23848;49.798;10.228;2023-01-20T02:10:53;17.27;;;11.18;;
26756;SDS011;23848;49.798;10.228;2023-01-20T02:13:21;20.75;;;12.43;;
26756;SDS011;23848;49.798;10.228;2023-01-20T02:15:51;19.83;;;10.93;;
26756;SDS011;23848;49.798;10.228;2023-01-20T02:18:30;18.65;;;12.02;;
26756;SDS011;23848;49.798;10.228;2023-01-20T02:21:08;17.48;;;10.77;;
26756;SDS011;23848;49.798;10.228;2023-01-20T02:23:48;18.08;;;11.13;;
26756;SDS011;23848;49.798;10.228;2023-01-20T02:26:27;19.38;;;12.32;;
26756;SDS011;23848;49.798;10.228;2023-01-20T02:29:09;18.20;;;11.63;;
26756;SDS011;23848;49.798;10.228;2023-01-20T02:31:57;20.25;;;13.15;;
26756;SDS011;23848;49.798;10.228;2023-01-20T02:34:31;19.58;;;13.35;;
26756;SDS011;23848;49.798;10.228;2023-01-20T02:37:04;19.67;;;13.63;;
26756;SDS011;23848;49.798;10.228;2023-01-20T02:39:35;17.17;;;12.48;;
26756;SDS011;23848;49.798;10.228;2023-01-20T02:42:06;22.80;;;14.32;;
26756;SDS011;23848;49.798;10.228;2023-01-20T02:44:37;21.45;;;14.07;;
26756;SDS011;23848;49.798;10.228;2023-01-20T02:47:10;21.63;;;12.93;;
26756;SDS011;23848;49.798;10.228;2023-01-20T02:49:39;20.30;;;12.45;;
26756;SDS011;23848;49.798;10.228;2023-01-20T02:52:13;20.02;;;12.82;;
26756;SDS011;23848;49.798;10.228;2023-01-20T02:54:45;21.67;;;14.50;;
26756;SDS011;23848;49.798;10.228;2023-01-20T02:57:16;22.48;;;13.82;;
26756;SDS011;23848;49.798;10.228;2023-01-20T02:59:46;20.02;;;14.15;;
26756;SDS011;23848;49.798;10.228;2023-01-20T03:02:18;21.35;;;14.05;;
26756;SDS011;23848;49.798;10.228;2023-01-20T03:04:48;22.05;;;12.35;;
26756;SDS011;23848;49.798;10.228;2023-01-20T03:07:17;22.42;;;14.38;;
26756;SDS011;23848;49.798;10.228;2023-01-20T03:09:50;20.00;;;13.85;;
26756;SDS011;23848;49.798;10.228;2023-01-20T03:12:19;20.02;;;14.30;;
26756;SDS011;23848;49.798;10.228;2023-01-20T03:14:49;21.90;;;13.68;;
26756;SDS011;23848;49.798;10.228;2023-01-20T03:17:19;19.88;;;14.05;;
26756;SDS011;23848;49.798;10.228;2023-01-20T03:19:48;19.45;;;12.27;;
26756;SDS011;23848;49.798;10.228;2023-01-20T03:22:16;20.17;;;12.68;;
26756;SDS011;23848;49.798;10.228;2023-01-20T03:24:45;21.80;;;14.45;;
26756;SDS011;23848;49.798;10.228;2023-01-20T03:27:14;21.05;;;14.05;;
26756;SDS011;23848;49.798;10.228;2023-01-20T03:29:43;21.38;;;14.07;;
26756;SDS011;23848;49.798;10.228;2023-01-20T03:32:11;19.77;;;13.68;;
26756;SDS011;23848;49.798;10.228;2023-01-20T03:34:41;21.13;;;14.00;;
26756;SDS011;23848;49.798;10.228;2023-01-20T03:37:10;19.45;;;12.38;;
26756;SDS011;23848;49.798;10.228;2023-01-20T03:39:39;20.00;;;14.02;;
26756;SDS011;23848;49.798;10.228;2023-01-20T03:42:08;22.00;;;14.27;;
26756;SDS011;23848;49.798;10.228;2023-01-20T03:44:43;21.10;;;14.00;;
26756;SDS011;23848;49.798;10.228;2023-01-20T03:47:14;21.10;;;14.50;;
26756;SDS011;23848;49.798;10.228;2023-01-20T03:49:49;23.05;;;14.75;;
26756;SDS011;23848;49.798;10.228;2023-01-20T03:52:22;20.85;;;14.82;;
26756;SDS011;23848;49.798;10.228;2023-01-20T03:55:13;23.25;;;13.20;;
26756;SDS011;23848;49.798;10.228;2023-01-20T03:57:43;27.10;;;14.60;;
26756;SDS011;23848;49.798;10.228;2023-01-20T04:00:13;21.70;;;13.32;;
26756;SDS011;23848;49.798;10.228;2023-01-20T04:02:43;21.63;;;13.65;;
26756;SDS011;23848;49.798;10.228;2023-01-20T04:05:13;21.58;;;13.98;;
26756;SDS011;23848;49.798;10.228;2023-01-20T04:07:42;25.10;;;13.90;;
26756;SDS011;23848;49.798;10.228;2023-01-20T04:10:13;20.70;;;14.65;;
26756;SDS011;23848;49.798;10.228;2023-01-20T04:12:42;24.00;;;15.60;;
26756;SDS011;23848;49.798;10.228;2023-01-20T04:15:11;23.42;;;15.20;;
26756;SDS011;23848;49.798;10.228;2023-01-20T04:17:40;23.90;;;16.00;;
26756;SDS011;23848;49.798;10.228;2023-01-20T04:20:09;24.00;;;15.32;;
26756;SDS011;23848;49.798;10.228;2023-01-20T04:22:41;23.48;;;16.42;;
26756;SDS011;23848;49.798;10.228;2023-01-20T04:25:12;25.10;;;16.58;;
26756;SDS011;23848;49.798;10.228;2023-01-20T04:27:41;25.45;;;15.27;;
26756;SDS011;23848;49.798;10.228;2023-01-20T04:30:11;24.02;;;14.77;;
26756;SDS011;23848;49.798;10.228;2023-01-20T04:32:40;24.88;;;16.55;;
26756;SDS011;23848;49.798;10.228;2023-01-20T04:35:09;22.80;;;14.77;;
26756;SDS011;23848;49.798;10.228;2023-01-20T04:37:41;27.52;;;15.70;;
26756;SDS011;23848;49.798;10.228;2023-01-20T04:40:10;25.13;;;17.45;;
26756;SDS011;23848;49.798;10.228;2023-01-20T04:42:38;25.77;;;16.80;;
26756;SDS011;23848;49.798;10.228;2023-01-20T04:45:08;26.20;;;17.48;;
26756;SDS011;23848;49.798;10.228;2023-01-20T04:47:36;25.83;;;17.52;;
26756;SDS011;23848;49.798;10.228;2023-01-20T04:50:05;27.15;;;15.32;;
26756;SDS011;23848;49.798;10.228;2023-01-20T04:52:34;25.20;;;16.10;;
26756;SDS011;23848;49.798;10.228;2023-01-20T04:55:04;29.73;;;18.15;;
26756;SDS011;23848;49.798;10.228;2023-01-20T04:57:32;28.52;;;17.40;;
26756;SDS011;23848;49.798;10.228;2023-01-20T05:00:01;29.40;;;17.20;;
26756;SDS011;23848;49.798;10.228;2023-01-20T05:02:30;28.17;;;17.45;;
26756;SDS011;23848;49.798;10.228;2023-01-20T05:04:59;27.10;;;16.25;;
26756;SDS011;23848;49.798;10.228;2023-01-20T05:07:27;28.80;;;18.77;;
26756;SDS011;23848;49.798;10.228;2023-01-20T05:09:56;25.65;;;17.67;;
26756;SDS011;23848;49.798;10.228;2023-01-20T05:12:26;29.13;;;18.67;;
26756;SDS011;23848;49.798;10.228;2023-01-20T05:14:54;26.27;;;17.27;;
26756;SDS011;23848;49.798;10.228;2023-01-20T05:17:22;28.50;;;17.65;;
26756;SDS011;23848;49.798;10.228;2023-01-20T05:19:51;26.23;;;17.42;;
26756;SDS011;23848;49.798;10.228;2023-01-20T05:22:19;26.65;;;16.02;;
26756;SDS011;23848;49.798;10.228;2023-01-20T05:24:47;25.48;;;17.50;;
26756;SDS011;23848;49.798;10.228;2023-01-20T05:27:16;26.85;;;17.55;;
26756;SDS011;23848;49.798;10.228;2023-01-20T05:29:46;23.95;;;16.60;;
26756;SDS011;23848;49.798;10.228;2023-01-20T05:32:14;24.73;;;15.90;;
26756;SDS011;23848;49.798;10.228;2023-01-20T05:34:43;27.38;;;16.33;;
26756;SDS011;23848;49.798;10.228;2023-01-20T05:37:11;26.10;;;16.27;;
26756;SDS011;23848;49.798;10.228;2023-01-20T05:39:40;25.23;;;14.48;;
26756;SDS011;23848;49.798;10.228;2023-01-20T05:42:15;27.17;;;16.30;;
26756;SDS011;23848;49.798;10.228;2023-01-20T05:44:43;27.70;;;17.35;;
26756;SDS011;23848;49.798;10.228;2023-01-20T05:47:13;24.85;;;14.80;;
26756;SDS011;23848;49.798;10.228;2023-01-20T05:49:42;26.58;;;17.20;;
26756;SDS011;23848;49.798;10.228;2023-01-20T05:52:12;27.70;;;17.40;;
26756;SDS011;23848;49.798;10.228;2023-01-20T05:54:40;25.25;;;16.83;;
26756;SDS011;23848;49.798;10.228;2023-01-20T05:57:09;26.45;;;16.42;;
26756;SDS011;23848;49.798;10.228;2023-01-20T05:59:39;29.35;;;18.08;;
26756;SDS011;23848;49.798;10.228;2023-01-20T06:02:08;29.67;;;18.10;;
26756;SDS011;23848;49.798;10.228;2023-01-20T06:04:37;26.20;;;16.83;;
26756;SDS011;23848;49.798;10.228;2023-01-20T06:07:06;28.58;;;15.35;;
26756;SDS011;23848;49.798;10.228;2023-01-20T06:09:34;26.70;;;17.23;;
26756;SDS011;23848;49.798;10.228;2023-01-20T06:12:03;28.00;;;17.92;;
26756;SDS011;23848;49.798;10.228;2023-01-20T06:14:31;23.15;;;14.68;;
26756;SDS011;23848;49.798;10.228;2023-01-20T06:17:00;27.02;;;17.55;;
26756;SDS011;23848;49.798;10.228;2023-01-20T06:19:28;29.67;;;16.30;;
26756;SDS011;23848;49.798;10.228;2023-01-20T06:21:58;24.85;;;15.63;;
26756;SDS011;23848;49.798;10.228;2023-01-20T06:24:27;27.85;;;17.50;;
26756;SDS011;23848;49.798;10.228;2023-01-20T06:26:55;28.40;;;15.70;;
26756;SDS011;23848;49.798;10.228;2023-01-20T06:29:41;28.55;;;16.98;;
26756;SDS011;23848;49.798;10.228;2023-01-20T06:32:10;31.00;;;17.23;;
26756;SDS011;23848;49.798;10.228;2023-01-20T06:34:38;32.45;;;20.73;;
26756;SDS011;23848;49.798;10.228;2023-01-20T06:37:08;33.85;;;19.73;;
26756;SDS011;23848;49.798;10.228;2023-01-20T06:39:37;34.28;;;20.10;;
26756;SDS011;23848;49.798;10.228;2023-01-20T06:42:06;34.22;;;21.63;;
26756;SDS011;23848;49.798;10.228;2023-01-20T06:44:36;39.30;;;23.10;;
26756;SDS011;23848;49.798;10.228;2023-01-20T06:47:05;34.20;;;20.55;;
26756;SDS011;23848;49.798;10.228;2023-01-20T06:49:33;34.88;;;20.33;;
26756;SDS011;23848;49.798;10.228;2023-01-20T06:52:02;27.60;;;17.55;;
26756;SDS011;23848;49.798;10.228;2023-01-20T06:54:32;27.10;;;17.50;;
26756;SDS011;23848;49.798;10.228;2023-01-20T06:57:00;30.33;;;18.00;;
26756;SDS011;23848;49.798;10.228;2023-01-20T06:59:29;27.92;;;17.30;;
26756;SDS011;23848;49.798;10.228;2023-01-20T07:01:57;23.98;;;14.85;;
26756;SDS011;23848;49.798;10.228;2023-01-20T07:04:26;25.77;;;16.92;;
26756;SDS011;23848;49.798;10.228;2023-01-20T07:06:54;28.30;;;16.80;;
26756;SDS011;23848;49.798;10.228;2023-01-20T07:09:23;29.73;;;17.70;;
26756;SDS011;23848;49.798;10.228;2023-01-20T07:11:53;28.92;;;16.30;;
26756;SDS011;23848;49.798;10.228;2023-01-20T07:14:21;26.48;;;16.85;;
26756;SDS011;23848;49.798;10.228;2023-01-20T07:16:50;30.25;;;18.65;;
26756;SDS011;23848;49.798;10.228;2023-01-20T07:19:19;27.60;;;18.80;;
26756;SDS011;23848;49.798;10.228;2023-01-20T07:21:47;32.33;;;19.23;;
26756;SDS011;23848;49.798;10.228;2023-01-20T07:24:16;30.45;;;19.30;;
26756;SDS011;23848;49.798;10.228;2023-01-20T07:26:44;30.70;;;19.25;;
26756;SDS011;23848;49.798;10.228;2023-01-20T07:29:14;36.33;;;23.10;;
26756;SDS011;23848;49.798;10.228;2023-01-20T07:31:43;38.78;;;24.05;;
26756;SDS011;23848;49.798;10.228;2023-01-20T07:34:12;36.63;;;23.10;;
26756;SDS011;23848;49.798;10.228;2023-01-20T07:36:41;40.17;;;23.35;;
26756;SDS011;23848;49.798;10.228;2023-01-20T07:39:09;35.60;;;22.60;;
26756;SDS011;23848;49.798;10.228;2023-01-20T07:41:38;31.33;;;20.58;;
26756;SDS011;23848;49.798;10.228;2023-01-20T07:44:08;30.75;;;19.55;;
26756;SDS011;23848;49.798;10.228;2023-01-20T07:46:38;33.05;;;21.17;;
26756;SDS011;23848;49.798;10.228;2023-01-20T07:49:09;36.22;;;21.00;;
26756;SDS011;23848;49.798;10.228;2023-01-20T07:51:37;32.95;;;19.92;;
26756;SDS011;23848;49.798;10.228;2023-01-20T07:54:07;34.47;;;19.88;;
26756;SDS011;23848;49.798;10.228;2023-01-20T07:56:36;36.22;;;20.88;;
26756;SDS011;23848;49.798;10.228;2023-01-20T07:59:04;34.67;;;20.08;;
26756;SDS011;23848;49.798;10.228;2023-01-20T08:01:33;33.50;;;20.63;;
26756;SDS011;23848;49.798;10.228;2023-01-20T08:04:03;36.03;;;20.40;;
26756;SDS011;23848;49.798;10.228;2023-01-20T08:06:31;34.05;;;18.92;;
26756;SDS011;23848;49.798;10.228;2023-01-20T08:09:00;35.25;;;23.60;;
26756;SDS011;23848;49.798;10.228;2023-01-20T08:11:28;36.83;;;23.92;;
26756;SDS011;23848;49.798;10.228;2023-01-20T08:13:58;44.30;;;27.77;;
26756;SDS011;23848;49.798;10.228;2023-01-20T08:16:26;42.85;;;27.38;;
26756;SDS011;23848;49.798;10.228;2023-01-20T08:18:55;39.75;;;26.40;;
26756;SDS011;23848;49.798;10.228;2023-01-20T08:21:25;42.05;;;27.27;;
26756;SDS011;23848;49.798;10.228;2023-01-20T08:23:54;35.72;;;23.42;;
26756;SDS011;23848;49.798;10.228;2023-01-20T08:26:24;37.00;;;22.13;;
26756;SDS011;23848;49.798;10.228;2023-01-20T08:28:53;30.98;;;20.15;;
26756;SDS011;23848;49.798;10.228;2023-01-20T08:31:22;29.17;;;19.17;;
26756;SDS011;23848;49.798;10.228;2023-01-20T08:33:51;32.08;;;18.67;;
26756;SDS011;23848;49.798;10.228;2023-01-20T08:36:21;31.38;;;18.23;;
26756;SDS011;23848;49.798;10.228;2023-01-20T08:38:51;33.72;;;18.73;;
26756;SDS011;23848;49.798;10.228;2023-01-20T08:41:21;31.45;;;19.23;;
26756;SDS011;23848;49.798;10.228;2023-01-20T08:43:50;31.98;;;18.50;;
26756;SDS011;23848;49.798;10.228;2023-01-20T08:46:19;30.95;;;18.27;;
26756;SDS011;23848;49.798;10.228;2023-01-20T08:48:48;32.97;;;21.10;;
26756;SDS011;23848;49.798;10.228;2023-01-20T08:51:17;34.55;;;22.90;;
26756;SDS011;23848;49.798;10.228;2023-01-20T08:53:47;31.30;;;20.17;;
26756;SDS011;23848;49.798;10.228;2023-01-20T08:56:17;34.65;;;19.33;;
26756;SDS011;23848;49.798;10.228;2023-01-20T08:58:46;33.33;;;21.42;;
26756;SDS011;23848;49.798;10.228;2023-01-20T09:01:15;27.90;;;17.30;;
26756;SDS011;23848;49.798;10.228;2023-01-20T09:03:44;28.13;;;17.63;;
26756;SDS011;23848;49.798;10.228;2023-01-20T09:06:29;34.47;;;18.90;;
26756;SDS011;23848;49.798;10.228;2023-01-20T09:08:57;24.75;;;17.02;;
26756;SDS011;23848;49.798;10.228;2023-01-20T09:11:30;20.80;;;13.15;;
26756;SDS011;23848;49.798;10.228;2023-01-20T09:13:58;25.27;;;14.25;;
26756;SDS011;23848;49.798;10.228;2023-01-20T09:16:27;23.77;;;14.13;;
26756;SDS011;23848;49.798;10.228;2023-01-20T09:18:55;20.77;;;14.38;;
26756;SDS011;23848;49.798;10.228;2023-01-20T09:21:23;23.55;;;15.18;;
26756;SDS011;23848;49.798;10.228;2023-01-20T09:23:52;19.05;;;13.23;;
26756;SDS011;23848;49.798;10.228;2023-01-20T09:26:20;20.20;;;13.45;;
26756;SDS011;23848;49.798;10.228;2023-01-20T09:29:02;23.17;;;14.95;;
26756;SDS011;23848;49.798;10.228;2023-01-20T09:31:35;20.45;;;13.50;;
26756;SDS011;23848;49.798;10.228;2023-01-20T09:34:04;23.85;;;14.90;;
26756;SDS011;23848;49.798;10.228;2023-01-20T09:36:32;20.42;;;12.75;;
26756;SDS011;23848;49.798;10.228;2023-01-20T09:39:01;22.00;;;12.40;;
26756;SDS011;23848;49.798;10.228;2023-01-20T09:41:47;22.02;;;13.63;;
26756;SDS011;23848;49.798;10.228;2023-01-20T09:44:39;23.15;;;12.82;;
26756;SDS011;23848;49.798;10.228;2023-01-20T09:50:02;57.55;;;32.35;;
26756;SDS011;23848;49.798;10.228;2023-01-20T09:52:51;27.63;;;16.20;;
26756;SDS011;23848;49.798;10.228;2023-01-20T09:55:33;45.88;;;25.13;;
26756;SDS011;23848;49.798;10.228;2023-01-20T09:58:08;43.45;;;23.65;;
26756;SDS011;23848;49.798;10.228;2023-01-20T10:00:41;24.40;;;15.70;;
26756;SDS011;23848;49.798;10.228;2023-01-20T10:03:10;39.53;;;21.05;;
26756;SDS011;23848;49.798;10.228;2023-01-20T10:05:40;28.02;;;15.93;;
26756;SDS011;23848;49.798;10.228;2023-01-20T10:08:12;21.75;;;14.27;;
26756;SDS011;23848;49.798;10.228;2023-01-20T10:10:45;23.63;;;14.65;;
26756;SDS011;23848;49.798;10.228;2023-01-20T10:13:17;20.90;;;13.50;;
26756;SDS011;23848;49.798;10.228;2023-01-20T10:15:49;24.42;;;14.52;;
26756;SDS011;23848;49.798;10.228;2023-01-20T10:18:21;18.05;;;12.18;;
26756;SDS011;23848;49.798;10.228;2023-01-20T10:20:52;18.98;;;13.00;;
26756;SDS011;23848;49.798;10.228;2023-01-20T10:23:23;20.42;;;12.48;;
26756;SDS011;23848;49.798;10.228;2023-01-20T10:25:55;19.33;;;11.57;;
26756;SDS011;23848;49.798;10.228;2023-01-20T10:28:27;19.08;;;11.07;;
26756;SDS011;23848;49.798;10.228;2023-01-20T10:30:58;14.43;;;10.95;;
26756;SDS011;23848;49.798;10.228;2023-01-20T10:33:28;15.93;;;10.63;;
26756;SDS011;23848;49.798;10.228;2023-01-20T10:35:58;20.67;;;12.52;;
26756;SDS011;23848;49.798;10.228;2023-01-20T10:38:28;19.63;;;12.50;;
26756;SDS011;23848;49.798;10.228;2023-01-20T10:41:01;19.17;;;12.47;;
26756;SDS011;23848;49.798;10.228;2023-01-20T10:43:30;16.42;;;10.68;;
26756;SDS011;23848;49.798;10.228;2023-01-20T10:46:04;19.25;;;12.63;;
26756;SDS011;23848;49.798;10.228;2023-01-20T10:48:41;16.48;;;11.00;;
26756;SDS011;23848;49.798;10.228;2023-01-20T10:51:15;17.27;;;11.80;;
26756;SDS011;23848;49.798;10.228;2023-01-20T10:53:52;25.33;;;15.10;;
26756;SDS011;23848;49.798;10.228;2023-01-20T10:56:34;20.80;;;13.60;;
26756;SDS011;23848;49.798;10.228;2023-01-20T10:59:06;23.55;;;14.48;;
26756;SDS011;23848;49.798;10.228;2023-01-20T11:01:37;24.75;;;15.10;;
26756;SDS011;23848;49.798;10.228;2023-01-20T11:04:09;20.83;;;13.68;;
26756;SDS011;23848;49.798;10.228;2023-01-20T11:06:42;20.58;;;13.77;;
26756;SDS011;23848;49.798;10.228;2023-01-20T11:09:16;21.50;;;13.80;;
26756;SDS011;23848;49.798;10.228;2023-01-20T11:11:46;23.38;;;14.65;;
26756;SDS011;23848;49.798;10.228;2023-01-20T11:14:15;21.95;;;13.93;;
26756;SDS011;23848;49.798;10.228;2023-01-20T11:16:48;23.58;;;15.32;;
26756;SDS011;23848;49.798;10.228;2023-01-20T11:19:23;23.73;;;14.95;;
26756;SDS011;23848;49.798;10.228;2023-01-20T11:21:51;23.35;;;15.60;;
26756;SDS011;23848;49.798;10.228;2023-01-20T11:27:09;23.92;;;15.18;;
26756;SDS011;23848;49.798;10.228;2023-01-20T11:29:39;30.52;;;16.80;;
26756;SDS011;23848;49.798;10.228;2023-01-20T11:34:57;22.55;;;14.07;;
26756;SDS011;23848;49.798;10.228;2023-01-20T11:37:29;27.38;;;15.15;;
26756;SDS011;23848;49.798;10.228;2023-01-20T11:40:05;26.52;;;15.75;;
26756;SDS011;23848;49.798;10.228;2023-01-20T11:42:43;27.33;;;16.85;;
26756;SDS011;23848;49.798;10.228;2023-01-20T11:45:26;27.63;;;15.85;;
26756;SDS011;23848;49.798;10.228;2023-01-20T11:48:00;24.90;;;15.40;;
26756;SDS011;23848;49.798;10.228;2023-01-20T11:50:31;26.67;;;15.95;;
26756;SDS011;23848;49.798;10.228;2023-01-20T11:55:57;28.35;;;16.52;;
26756;SDS011;23848;49.798;10.228;2023-01-20T11:58:27;28.35;;;17.10;;
26756;SDS011;23848;49.798;10.228;2023-01-20T12:00:58;24.73;;;15.23;;
26756;SDS011;23848;49.798;10.228;2023-01-20T12:06:27;25.90;;;15.52;;
26756;SDS011;23848;49.798;10.228;2023-01-20T12:08:58;26.50;;;15.80;;
26756;SDS011;23848;49.798;10.228;2023-01-20T12:11:29;25.30;;;15.40;;
26756;SDS011;23848;49.798;10.228;2023-01-20T12:14:09;24.10;;;15.13;;
26756;SDS011;23848;49.798;10.228;2023-01-20T12:16:51;24.50;;;14.82;;
26756;SDS011;23848;49.798;10.228;2023-01-20T12:19:22;24.10;;;15.48;;
26756;SDS011;23848;49.798;10.228;2023-01-20T12:21:56;22.00;;;14.75;;
26756;SDS011;23848;49.798;10.228;2023-01-20T12:24:29;23.80;;;15.02;;
26756;SDS011;23848;49.798;10.228;2023-01-20T12:27:21;26.55;;;15.85;;
26756;SDS011;23848;49.798;10.228;2023-01-20T12:29:52;24.33;;;15.40;;
26756;SDS011;23848;49.798;10.228;2023-01-20T12:32:23;26.38;;;15.52;;
26756;SDS011;23848;49.798;10.228;2023-01-20T12:34:54;26.63;;;16.58;;
26756;SDS011;23848;49.798;10.228;2023-01-20T12:37:24;24.63;;;14.75;;
26756;SDS011;23848;49.798;10.228;2023-01-20T12:40:01;23.95;;;15.60;;
26756;SDS011;23848;49.798;10.228;2023-01-20T12:42:44;23.90;;;15.20;;
26756;SDS011;23848;49.798;10.228;2023-01-20T12:45:19;26.02;;;15.73;;
26756;SDS011;23848;49.798;10.228;2023-01-20T12:48:03;24.80;;;16.33;;
26756;SDS011;23848;49.798;10.228;2023-01-20T12:50:43;28.13;;;15.40;;
26756;SDS011;23848;49.798;10.228;2023-01-20T12:53:18;26.25;;;16.58;;
26756;SDS011;23848;49.798;10.228;2023-01-20T12:55:51;25.88;;;15.63;;
26756;SDS011;23848;49.798;10.228;2023-01-20T12:58:29;24.00;;;14.95;;
26756;SDS011;23848;49.798;10.228;2023-01-20T13:01:11;27.00;;;17.10;;
26756;SDS011;23848;49.798;10.228;2023-01-20T13:03:47;29.50;;;16.48;;
26756;SDS011;23848;49.798;10.228;2023-01-20T13:06:28;26.42;;;16.45;;
26756;SDS011;23848;49.798;10.228;2023-01-20T13:09:10;26.30;;;15.73;;
26756;SDS011;23848;49.798;10.228;2023-01-20T13:11:45;27.40;;;16.55;;
26756;SDS011;23848;49.798;10.228;2023-01-20T13:14:19;28.60;;;17.70;;
26756;SDS011;23848;49.798;10.228;2023-01-20T13:16:49;25.75;;;15.77;;
26756;SDS011;23848;49.798;10.228;2023-01-20T13:19:25;24.70;;;15.30;;
26756;SDS011;23848;49.798;10.228;2023-01-20T13:21:54;26.38;;;15.27;;
26756;SDS011;23848;49.798;10.228;2023-01-20T13:24:34;22.95;;;14.45;;
26756;SDS011;23848;49.798;10.228;2023-01-20T13:27:03;26.00;;;15.18;;
26756;SDS011;23848;49.798;10.228;2023-01-20T13:29:44;32.42;;;18.85;;
26756;SDS011;23848;49.798;10.228;2023-01-20T13:32:29;22.85;;;14.90;;
26756;SDS011;23848;49.798;10.228;2023-01-20T13:34:59;22.98;;;13.25;;
26756;SDS011;23848;49.798;10.228;2023-01-20T13:37:33;23.48;;;14.95;;
26756;SDS011;23848;49.798;10.228;2023-01-20T13:40:11;24.08;;;15.02;;
26756;SDS011;23848;49.798;10.228;2023-01-20T13:42:55;23.17;;;15.27;;
26756;SDS011;23848;49.798;10.228;2023-01-20T13:45:24;25.20;;;15.30;;
26756;SDS011;23848;49.798;10.228;2023-01-20T13:47:59;26.38;;;15.82;;
26756;SDS011;23848;49.798;10.228;2023-01-20T13:50:30;23.98;;;16.30;;
26756;SDS011;23848;49.798;10.228;2023-01-20T13:55:53;26.67;;;16.25;;
26756;SDS011;23848;49.798;10.228;2023-01-20T13:58:27;26.52;;;15.45;;
26756;SDS011;23848;49.798;10.228;2023-01-20T14:01:03;24.42;;;15.35;;
26756;SDS011;23848;49.798;10.228;2023-01-20T14:03:43;28.33;;;17.13;;
26756;SDS011;23848;49.798;10.228;2023-01-20T14:06:17;27.63;;;17.85;;
26756;SDS011;23848;49.798;10.228;2023-01-20T14:08:51;29.25;;;18.15;;
26756;SDS011;23848;49.798;10.228;2023-01-20T14:11:23;30.92;;;18.10;;
26756;SDS011;23848;49.798;10.228;2023-01-20T14:13:55;27.77;;;17.67;;
26756;SDS011;23848;49.798;10.228;2023-01-20T14:16:27;29.33;;;17.77;;
26756;SDS011;23848;49.798;10.228;2023-01-20T14:18:58;28.35;;;16.77;;
26756;SDS011;23848;49.798;10.228;2023-01-20T14:21:38;29.92;;;17.35;;
26756;SDS011;23848;49.798;10.228;2023-01-20T14:24:21;27.05;;;15.95;;
26756;SDS011;23848;49.798;10.228;2023-01-20T14:27:04;40.00;;;21.23;;
26756;SDS011;23848;49.798;10.228;2023-01-20T14:29:56;28.15;;;17.45;;
26756;SDS011;23848;49.798;10.228;2023-01-20T14:32:38;37.65;;;21.77;;
26756;SDS011;23848;49.798;10.228;2023-01-20T14:35:11;32.58;;;20.00;;
26756;SDS011;23848;49.798;10.228;2023-01-20T14:37:41;33.72;;;19.98;;
26756;SDS011;23848;49.798;10.228;2023-01-20T14:40:18;30.42;;;18.23;;
26756;SDS011;23848;49.798;10.228;2023-01-20T14:42:56;30.20;;;18.60;;
26756;SDS011;23848;49.798;10.228;2023-01-20T14:45:28;29.77;;;18.20;;
26756;SDS011;23848;49.798;10.228;2023-01-20T14:47:58;29.52;;;19.60;;
26756;SDS011;23848;49.798;10.228;2023-01-20T14:50:28;28.00;;;18.33;;